Time,TemperatureF,DewpointF,PressureIn,WindDirection,WindDirectionDegrees,WindSpeedMPH,WindSpeedGustMPH,Humidity,HourlyPrecipIn,Conditions,Clouds,dailyrainin,SoftwareType,DateUTC
2013-02-14 00:00:00,47.0,41.8,30.21,ENE,67,0.0,1.0,82,0.00,,---,0.00,VWS V14.00,2013-02-14 08:00:00,
2013-02-14 00:01:00,48.0,42.8,30.23,ENE,67,0.0,1.0,82,0.00,,---,0.00,VWS V14.00,2013-02-14 08:01:00,
2013-02-14 00:30:00,47.9,42.7,30.22,ENE,67,0.0,1.0,82,0.00,,---,0.00,VWS V14.00,2013-02-14 08:30:00,
2013-02-14 01:00:00,47.0,41.8,30.21,ENE,67,0.0,1.0,82,0.00,,---,0.00,VWS V14.00,2013-02-14 09:00:00,
2013-02-14 01:30:00,47.1,41.3,30.22,ENE,67,0.0,1.0,80,0.00,,---,0.00,VWS V14.00,2013-02-14 09:30:00,
2013-02-14 02:00:00,45.6,40.4,30.19,ENE,67,0.0,1.0,82,0.00,,---,0.00,VWS V14.00,2013-02-14 10:00:00,
2013-02-14 02:01:00,47.2,41.4,30.20,ENE,67,0.0,1.0,80,0.00,,---,0.00,VWS V14.00,2013-02-14 10:01:00,
2013-02-14 02:30:00,46.3,40.8,30.20,ENE,67,0.0,0.0,81,0.00,,---,0.00,VWS V14.00,2013-02-14 10:30:00,
2013-02-14 03:00:00,46.4,41.5,30.19,ENE,67,0.0,1.0,83,0.00,,---,0.00,VWS V14.00,2013-02-14 11:00:00,
2013-02-14 03:01:00,45.6,40.4,30.19,ENE,67,0.0,1.0,82,0.00,,---,0.00,VWS V14.00,2013-02-14 11:01:00,
2013-02-14 03:30:00,46.1,41.2,30.19,ENE,67,0.0,1.0,83,0.00,,---,0.00,VWS V14.00,2013-02-14 11:30:00,
2013-02-14 03:31:00,46.4,40.6,30.19,ENE,67,0.0,1.0,80,0.00,,---,0.00,VWS V14.00,2013-02-14 11:31:00,
2013-02-14 04:00:00,45.4,40.5,30.19,ENE,67,0.0,1.0,83,0.00,,---,0.00,VWS V14.00,2013-02-14 12:00:00,
2013-02-14 04:01:00,46.4,41.5,30.19,ENE,67,0.0,1.0,83,0.00,,---,0.00,VWS V14.00,2013-02-14 12:01:00,
2013-02-14 04:30:00,45.4,40.5,30.19,ENE,67,0.0,0.0,83,0.00,,---,0.00,VWS V14.00,2013-02-14 12:30:00,
2013-02-14 04:31:00,46.1,41.2,30.19,ENE,67,0.0,1.0,83,0.00,,---,0.00,VWS V14.00,2013-02-14 12:31:00,
2013-02-14 05:00:00,44.7,40.2,30.19,ENE,67,0.0,1.0,84,0.00,,---,0.00,VWS V14.00,2013-02-14 13:00:00,
2013-02-14 05:01:00,45.4,40.5,30.19,ENE,67,0.0,1.0,83,0.00,,---,0.00,VWS V14.00,2013-02-14 13:01:00,
2013-02-14 05:30:00,44.9,39.4,30.19,ENE,67,0.0,1.0,81,0.00,,---,0.00,VWS V14.00,2013-02-14 13:30:00,
2013-02-14 05:31:00,45.4,40.5,30.19,ENE,67,0.0,0.0,83,0.00,,---,0.00,VWS V14.00,2013-02-14 13:31:00,
2013-02-14 06:00:00,44.7,40.2,30.19,ENE,67,0.0,1.0,84,0.00,,---,0.00,VWS V14.00,2013-02-14 14:00:00,
2013-02-14 06:30:00,47.5,40.0,30.19,ENE,67,0.0,1.0,75,0.00,,---,0.00,VWS V14.00,2013-02-14 14:30:00,
2013-02-14 06:31:00,44.9,39.4,30.19,ENE,67,0.0,1.0,81,0.00,,---,0.00,VWS V14.00,2013-02-14 14:31:00,
2013-02-14 07:00:00,51.6,43.2,30.21,ENE,67,0.0,1.0,73,0.00,,---,0.00,VWS V14.00,2013-02-14 15:00:00,
2013-02-14 07:01:00,45.6,39.8,30.19,ENE,67,0.0,1.0,80,0.00,,---,0.00,VWS V14.00,2013-02-14 15:01:00,
2013-02-14 07:30:00,53.7,48.7,30.22,ENE,67,0.0,1.0,83,0.00,,---,0.00,VWS V14.00,2013-02-14 15:30:00,
2013-02-14 07:31:00,47.5,40.0,30.19,ENE,67,0.0,1.0,75,0.00,,---,0.00,VWS V14.00,2013-02-14 15:31:00,
2013-02-14 08:00:00,54.4,49.7,30.23,West,279,2.0,3.0,84,0.00,,---,0.00,VWS V14.00,2013-02-14 16:00:00,
2013-02-14 08:01:00,51.6,43.2,30.21,ENE,67,0.0,1.0,73,0.00,,---,0.00,VWS V14.00,2013-02-14 16:01:00,
2013-02-14 08:30:00,54.9,50.5,30.25,West,279,1.0,2.0,85,0.00,,---,0.00,VWS V14.00,2013-02-14 16:30:00,
2013-02-14 08:31:00,53.7,48.7,30.22,ENE,67,0.0,1.0,83,0.00,,---,0.00,VWS V14.00,2013-02-14 16:31:00,
2013-02-14 09:00:00,54.4,49.7,30.23,West,279,2.0,3.0,84,0.00,,---,0.00,VWS V14.00,2013-02-14 17:00:00,
2013-02-14 09:30:00,54.9,50.5,30.25,West,279,1.0,2.0,85,0.00,,---,0.00,VWS V14.00,2013-02-14 17:30:00,
2013-02-14 10:00:00,56.5,52.0,30.25,West,269,3.0,5.0,85,0.00,,---,0.00,VWS V14.00,2013-02-14 18:00:00,
2013-02-14 10:30:00,60.8,53.2,30.20,West,275,1.0,5.0,76,0.00,,---,0.00,VWS V14.00,2013-02-14 18:30:00,
2013-02-14 10:31:00,57.3,52.2,30.23,West,278,1.0,4.0,83,0.00,,---,0.00,VWS V14.00,2013-02-14 18:31:00,
2013-02-14 11:00:00,57.9,52.5,30.18,West,273,4.0,8.0,82,0.00,,---,0.00,VWS V14.00,2013-02-14 19:00:00,
2013-02-14 11:01:00,58.8,52.7,30.21,West,278,1.0,3.0,80,0.00,,---,0.00,VWS V14.00,2013-02-14 19:01:00,
2013-02-14 11:30:00,57.9,52.5,30.16,West,274,5.0,8.0,82,0.00,,---,0.00,VWS V14.00,2013-02-14 19:30:00,
2013-02-14 11:31:00,60.8,53.2,30.20,West,275,1.0,5.0,76,0.00,,---,0.00,VWS V14.00,2013-02-14 19:31:00,
2013-02-14 12:00:00,57.9,52.5,30.18,West,273,4.0,8.0,82,0.00,,---,0.00,VWS V14.00,2013-02-14 20:00:00,
2013-02-14 12:30:00,57.9,52.5,30.16,West,274,5.0,8.0,82,0.00,,---,0.00,VWS V14.00,2013-02-14 20:30:00,
2013-02-14 13:00:00,58.6,51.8,30.14,West,277,5.0,7.0,78,0.00,,---,0.00,VWS V14.00,2013-02-14 21:00:00,
2013-02-14 13:30:00,59.1,52.3,30.12,West,269,6.0,9.0,78,0.00,,---,0.00,VWS V14.00,2013-02-14 21:30:00,
2013-02-14 14:00:00,60.2,52.6,30.11,West,263,6.0,9.0,76,0.00,,---,0.00,VWS V14.00,2013-02-14 22:00:00,
2013-02-14 14:30:00,58.8,53.7,30.11,West,261,7.0,8.0,83,0.00,,---,0.00,VWS V14.00,2013-02-14 22:30:00,
2013-02-14 14:31:00,60.2,52.6,30.11,West,270,8.0,9.0,76,0.00,,---,0.00,VWS V14.00,2013-02-14 22:31:00,
2013-02-14 15:00:00,59.4,53.9,30.10,West,273,6.0,10.0,82,0.00,,---,0.00,VWS V14.00,2013-02-14 23:00:00,
2013-02-14 15:30:00,58.8,53.7,30.11,West,261,7.0,8.0,83,0.00,,---,0.00,VWS V14.00,2013-02-14 23:30:00,
2013-02-14 16:00:00,58.3,54.5,30.11,West,271,5.0,8.0,87,0.00,,---,0.00,VWS V14.00,2013-02-15 00:00:00,
2013-02-14 16:30:00,58.5,54.7,30.11,West,272,4.0,8.0,87,0.00,,---,0.00,VWS V14.00,2013-02-15 00:30:00,
2013-02-14 17:00:00,57.7,54.2,30.11,West,272,3.0,7.0,88,0.00,,---,0.00,VWS V14.00,2013-02-15 01:00:00,
2013-02-14 17:30:00,56.8,52.3,30.12,WNW,294,0.0,5.0,85,0.00,,---,0.00,VWS V14.00,2013-02-15 01:30:00,
2013-02-14 18:00:00,56.0,52.5,30.13,West,275,3.0,5.0,88,0.00,,---,0.00,VWS V14.00,2013-02-15 02:00:00,
2013-02-14 18:30:00,55.5,52.0,30.14,West,278,0.0,4.0,88,0.00,,---,0.00,VWS V14.00,2013-02-15 02:30:00,
2013-02-14 19:00:00,55.0,51.5,30.16,West,278,0.0,2.0,88,0.00,,---,0.00,VWS V14.00,2013-02-15 03:00:00,
2013-02-14 19:30:00,54.8,51.3,30.17,West,278,0.0,1.0,88,0.00,,---,0.00,VWS V14.00,2013-02-15 03:30:00,
2013-02-14 20:00:00,55.3,51.8,30.17,SE,137,1.0,6.0,88,0.00,,---,0.00,VWS V14.00,2013-02-15 04:00:00,
2013-02-14 20:30:00,54.9,51.7,30.16,WSW,253,0.0,5.0,89,0.00,,---,0.00,VWS V14.00,2013-02-15 04:30:00,
2013-02-14 21:00:00,53.5,50.3,30.18,WSW,253,0.0,0.0,89,0.00,,---,0.00,VWS V14.00,2013-02-15 05:00:00,
2013-02-14 21:30:00,51.5,47.2,30.19,WSW,257,0.0,1.0,85,0.00,,---,0.00,VWS V14.00,2013-02-15 05:30:00,
2013-02-14 21:31:00,52.0,48.0,30.18,WSW,256,0.0,0.0,86,0.00,,---,0.00,VWS V14.00,2013-02-15 05:31:00,
2013-02-14 22:00:00,52.1,47.4,30.19,WSW,257,0.0,1.0,84,0.00,,---,0.00,VWS V14.00,2013-02-15 06:00:00,
2013-02-14 22:30:00,51.1,46.8,30.19,WSW,257,0.0,0.0,85,0.00,,---,0.00,VWS V14.00,2013-02-15 06:30:00,
2013-02-14 22:31:00,51.5,47.2,30.19,WSW,257,0.0,1.0,85,0.00,,---,0.00,VWS V14.00,2013-02-15 06:31:00,
2013-02-14 23:00:00,51.0,47.0,30.19,WSW,257,0.0,1.0,86,0.00,,---,0.00,VWS V14.00,2013-02-15 07:00:00,
2013-02-14 23:30:00,51.1,46.8,30.19,WSW,257,0.0,0.0,85,0.00,,---,0.00,VWS V14.00,2013-02-15 07:30:00,